Time;durP1;ratioP1;P1;durP2;ratioP2;P2;SDS_P1;SDS_P2;PMS_P1;PMS_P2;Temp;Humidity;BMP_temperature;BMP_pressure;BME280_temperature;BME280_humidity;BME280_pressure;Samples;Min_cycle;Max_cycle;Signal;HPM_P1;HPM_P2
2023/05/19 00:00:56;;;;;;;4.88;4.55;;;;;;;8.28;83.29;101993.47;6111685;23;20090;-70
2023/05/19 00:03:23;;;;;;;5.38;5.03;;;;;;;7.69;83.49;101883.22;6112402;23;20032;-70
2023/05/19 00:05:52;;;;;;;5.10;4.80;;;;;;;8.16;84.24;101970.22;6110946;23;20036;-70
2023/05/19 00:08:21;;;;;;;5.82;5.30;;;;;;;7.05;84.26;101800.06;6091022;23;20559;-70
2023/05/19 00:10:48;;;;;;;5.00;4.38;;;;;;;8.22;85.25;101990.13;6120737;23;20037;-70
2023/05/19 00:13:14;;;;;;;14.13;6.07;;;;;;;7.67;84.68;101905.91;6109350;23;20032;-71
2023/05/19 00:15:41;;;;;;;5.20;4.80;;;;;;;7.61;86.10;101909.50;6083756;23;20002;-70
2023/05/19 00:18:08;;;;;;;6.07;5.57;;;;;;;8.09;87.48;101997.38;6088865;23;20037;-70
2023/05/19 00:20:36;;;;;;;5.85;5.45;;;;;;;7.79;87.21;101956.13;6116322;23;20045;-70
2023/05/19 00:23:03;;;;;;;5.68;4.90;;;;;;;7.75;88.22;101962.31;6097158;23;20464;-70
2023/05/19 00:25:29;;;;;;;5.30;4.97;;;;;;;7.48;89.34;101932.41;6111760;23;20087;-71
2023/05/19 00:27:58;;;;;;;6.07;5.60;;;;;;;7.79;88.80;101984.03;6119130;23;20036;-70
2023/05/19 00:30:24;;;;;;;5.60;5.10;;;;;;;7.77;89.38;101986.66;6118330;23;20033;-71
2023/05/19 00:32:51;;;;;;;5.30;4.90;;;;;;;7.73;90.36;101990.25;6095499;23;20036;-70
2023/05/19 00:35:17;;;;;;;9.18;5.13;;;;;;;6.73;91.24;101830.22;6120476;23;20058;-70
2023/05/19 00:37:44;;;;;;;5.43;5.03;;;;;;;7.63;91.35;101986.09;6112331;23;20029;-70
2023/05/19 00:40:10;;;;;;;7.97;5.30;;;;;;;7.67;90.92;101986.88;6114706;23;20243;-70
2023/05/19 00:42:37;;;;;;;5.65;5.25;;;;;;;7.62;91.54;101986.09;6087374;23;20484;-71
2023/05/19 00:45:05;;;;;;;5.45;4.93;;;;;;;7.61;92.79;101990.47;6117214;23;20083;-71
2023/05/19 00:47:31;;;;;;;5.70;5.40;;;;;;;7.61;93.38;101987.00;6098609;23;20457;-71
2023/05/19 00:49:58;;;;;;;7.10;5.03;;;;;;;7.62;93.43;101992.22;6119103;23;20084;-70
2023/05/19 00:52:27;;;;;;;7.68;6.57;;;;;;;7.41;94.00;101951.66;6121368;23;20090;-71
2023/05/19 00:54:54;;;;;;;5.13;4.82;;;;;;;7.42;93.75;101952.53;6088513;23;20018;-70
2023/05/19 00:57:21;;;;;;;5.93;5.32;;;;;;;7.53;94.86;101972.31;6094117;23;20021;-70
2023/05/19 00:59:48;;;;;;;5.00;4.60;;;;;;;7.07;94.67;101887.03;6089476;23;20888;-70
2023/05/19 01:02:14;;;;;;;6.97;5.55;;;;;;;6.83;94.94;101858.78;6123537;23;20544;-70
2023/05/19 01:04:43;;;;;;;4.82;4.53;;;;;;;7.52;94.53;101960.19;6117682;23;20033;-70
2023/05/19 01:07:11;;;;;;;6.32;5.82;;;;;;;7.01;94.78;101897.56;6117964;23;20045;-70
2023/05/19 01:09:39;;;;;;;5.22;4.93;;;;;;;7.41;95.08;101961.25;6117986;23;20036;-70
2023/05/19 01:12:06;;;;;;;6.40;5.45;;;;;;;6.69;96.10;101846.81;6116333;23;20018;-71
2023/05/19 01:14:33;;;;;;;5.70;5.32;;;;;;;7.02;96.40;101899.31;6089537;23;20077;-70
2023/05/19 01:17:08;;;;;;;4.90;4.60;;;;;;;7.11;97.22;101919.16;6123993;23;20025;-70
2023/05/19 01:20:00;;;;;;;5.30;4.95;;;;;;;7.33;97.31;101945.72;6092768;23;20034;-70
2023/05/19 01:22:47;;;;;;;7.80;5.33;;;;;;;7.30;97.58;101948.41;6120005;23;20009;-70
2023/05/19 01:25:18;;;;;;;4.90;4.60;;;;;;;7.25;97.78;101937.19;6113000;23;20050;-70
2023/05/19 01:28:17;;;;;;;7.35;6.68;;;;;;;7.23;96.96;101934.59;6078061;23;20679;-71
2023/05/19 01:30:49;;;;;;;4.90;4.60;;;;;;;7.16;98.13;101930.38;6025821;23;20027;-70
2023/05/19 01:33:17;;;;;;;5.53;5.20;;;;;;;6.89;97.41;101889.97;6103327;23;20654;-71
2023/05/19 01:35:45;;;;;;;4.95;4.65;;;;;;;6.46;97.81;101831.59;6112171;23;20128;-70
2023/05/19 01:38:15;;;;;;;4.60;4.40;;;;;;;6.77;98.70;101891.88;6119755;23;20021;-70
2023/05/19 01:40:42;;;;;;;5.10;4.80;;;;;;;6.97;98.84;101946.34;6112640;23;20049;-70
2023/05/19 01:43:12;;;;;;;6.32;5.72;;;;;;;6.92;99.76;101936.91;6118496;23;20021;-69
2023/05/19 01:45:40;;;;;;;5.57;5.20;;;;;;;6.82;100.00;101930.13;6119283;23;20092;-70
2023/05/19 01:48:06;;;;;;;8.48;5.00;;;;;;;6.82;99.80;101938.81;6086436;23;20088;-69
2023/05/19 01:50:36;;;;;;;4.95;4.65;;;;;;;6.77;100.00;101932.78;6115805;23;20153;-70
2023/05/19 01:53:03;;;;;;;5.15;4.85;;;;;;;6.67;100.00;101932.06;6098582;23;20093;-70
2023/05/19 01:55:29;;;;;;;4.93;4.63;;;;;;;6.31;100.00;101878.75;6119026;23;20070;-70
2023/05/19 01:58:18;;;;;;;7.82;4.75;;;;;;;6.78;100.00;101951.03;6091748;23;20032;-70
2023/05/19 02:00:44;;;;;;;5.47;5.07;;;;;;;6.74;100.00;101949.34;6082141;23;20057;-70
2023/05/19 02:03:25;;;;;;;5.43;5.03;;;;;;;6.70;100.00;101949.44;6112118;23;20083;-70
2023/05/19 02:06:02;;;;;;;7.25;5.63;;;;;;;6.67;100.00;101955.53;6080837;23;20049;-70
2023/05/19 02:08:38;;;;;;;7.47;5.22;;;;;;;6.65;100.00;101956.47;6114143;23;20452;-70
2023/05/19 02:11:18;;;;;;;5.75;5.38;;;;;;;6.29;100.00;101903.97;6115055;23;20023;-70
2023/05/19 02:13:53;;;;;;;5.10;4.70;;;;;;;6.38;100.00;101925.56;6085620;23;20044;-70
2023/05/19 02:16:25;;;;;;;11.90;4.72;;;;;;;6.55;100.00;101964.41;6116688;23;20119;-70
2023/05/19 02:18:52;;;;;;;5.43;5.03;;;;;;;5.96;100.00;101881.00;6092104;23;20094;-70
2023/05/19 02:21:19;;;;;;;7.07;5.28;;;;;;;5.93;100.00;101893.16;6126581;23;20085;-70
2023/05/19 02:23:46;;;;;;;5.80;5.28;;;;;;;5.73;100.00;101846.53;6118861;23;20114;-70
2023/05/19 02:26:13;;;;;;;5.35;4.85;;;;;;;6.38;100.00;101962.06;6094694;23;20033;-69
2023/05/19 02:28:39;;;;;;;5.47;4.90;;;;;;;6.11;100.00;101916.38;6112817;23;20033;-70
2023/05/19 02:31:07;;;;;;;5.53;4.65;;;;;;;6.29;100.00;101958.72;6113577;23;20025;-70
2023/05/19 02:33:35;;;;;;;4.90;4.60;;;;;;;5.45;100.00;101823.47;6085305;23;20052;-70
2023/05/19 02:36:02;;;;;;;5.53;5.10;;;;;;;6.21;100.00;101964.03;6117013;23;20151;-70
2023/05/19 02:38:28;;;;;;;5.43;4.93;;;;;;;6.04;100.00;101945.19;6108501;23;20399;-70
2023/05/19 02:40:54;;;;;;;4.93;4.63;;;;;;;5.86;100.00;101915.00;6115752;23;20032;-70
2023/05/19 02:43:21;;;;;;;6.03;5.63;;;;;;;6.16;100.00;101960.66;6113045;23;20029;-70
2023/05/19 02:45:47;;;;;;;5.15;4.85;;;;;;;5.39;100.00;101831.34;6068545;23;20017;-70
2023/05/19 02:48:14;;;;;;;5.32;4.85;;;;;;;5.74;100.00;101889.97;6113795;23;20025;-71
2023/05/19 02:50:41;;;;;;;4.93;4.60;;;;;;;6.08;100.00;101957.28;6066890;23;20603;-71
2023/05/19 02:53:08;;;;;;;5.28;4.93;;;;;;;5.66;100.00;101887.44;6089124;23;20044;-70
2023/05/19 02:55:35;;;;;;;5.82;4.88;;;;;;;5.49;100.00;101859.03;6086949;23;20425;-69
2023/05/19 02:58:01;;;;;;;6.00;5.60;;;;;;;5.98;100.00;101944.38;6112634;23;20027;-70
2023/05/19 03:00:28;;;;;;;5.20;4.80;;;;;;;5.91;100.00;101936.63;6110422;23;20089;-69
2023/05/19 03:02:54;;;;;;;4.45;4.25;;;;;;;5.82;100.00;101915.91;6115044;23;20036;-70
2023/05/19 03:05:21;;;;;;;4.80;4.50;;;;;;;5.12;100.00;101802.19;6084421;23;20033;-70
2023/05/19 03:07:47;;;;;;;4.65;4.45;;;;;;;5.82;100.00;101926.34;6085504;23;20370;-69
2023/05/19 03:10:14;;;;;;;8.32;5.22;;;;;;;5.89;100.00;101933.16;6114915;23;20021;-70
2023/05/19 03:12:40;;;;;;;4.80;4.50;;;;;;;5.92;100.00;101946.16;6060902;23;20030;-70
2023/05/19 03:15:07;;;;;;;5.18;4.72;;;;;;;5.93;100.00;101953.09;6117835;23;20045;-70
2023/05/19 03:17:35;;;;;;;12.25;4.80;;;;;;;5.37;100.00;101865.25;6086224;23;20600;-70
2023/05/19 03:20:01;;;;;;;4.90;4.47;;;;;;;5.88;100.00;101955.75;6119786;23;20152;-70
2023/05/19 03:22:28;;;;;;;5.47;5.07;;;;;;;5.60;100.00;101905.75;6084638;23;20037;-70
2023/05/19 03:24:54;;;;;;;23.45;5.15;;;;;;;5.54;100.00;101900.63;6093957;23;20040;-70
2023/05/19 03:27:21;;;;;;;4.63;4.38;;;;;;;5.51;100.00;101901.53;6086833;23;20018;-70
2023/05/19 03:29:47;;;;;;;5.15;4.80;;;;;;;5.80;100.00;101952.41;6117742;23;20029;-71
2023/05/19 03:32:14;;;;;;;9.85;4.80;;;;;;;5.41;100.00;101907.69;6113027;23;20025;-70
2023/05/19 03:34:41;;;;;;;4.43;4.13;;;;;;;5.75;100.00;101948.97;6087260;23;20106;-70
2023/05/19 03:37:09;;;;;;;8.75;5.00;;;;;;;5.73;100.00;101953.34;6116598;23;20029;-69
2023/05/19 03:39:36;;;;;;;5.18;4.75;;;;;;;5.50;100.00;101904.13;6069399;23;20029;-70
2023/05/19 03:42:03;;;;;;;4.57;4.38;;;;;;;5.74;100.00;101942.91;6087097;23;20094;-70
2023/05/19 03:44:29;;;;;;;4.65;4.38;;;;;;;5.75;100.00;101949.84;6118458;23;20013;-70
2023/05/19 03:46:56;;;;;;;4.60;4.20;;;;;;;5.74;100.00;101942.06;6086550;23;20053;-69
2023/05/19 03:49:22;;;;;;;5.15;4.80;;;;;;;5.73;100.00;101948.13;6113891;23;20030;-69
2023/05/19 03:51:51;;;;;;;4.65;4.35;;;;;;;4.03;100.00;101654.31;6116530;23;20025;-69
2023/05/19 03:54:17;;;;;;;5.45;5.05;;;;;;;5.85;100.00;101949.72;6099949;23;20034;-70
2023/05/19 03:56:44;;;;;;;6.18;4.57;;;;;;;5.82;100.00;101937.59;6107073;23;20033;-70
2023/05/19 03:59:11;;;;;;;5.00;4.70;;;;;;;5.96;100.00;101951.34;6122371;23;20029;-70
2023/05/19 04:01:38;;;;;;;5.30;4.90;;;;;;;5.82;100.00;101916.75;6115307;23;20033;-70
2023/05/19 04:04:04;;;;;;;5.38;4.85;;;;;;;5.70;100.00;101883.06;6089340;23;20496;-70
2023/05/19 04:06:32;;;;;;;16.02;5.47;;;;;;;6.15;100.00;101932.84;6117931;23;20430;-70
2023/05/19 04:09:00;;;;;;;5.65;5.15;;;;;;;6.28;100.00;101892.69;6091631;23;20049;-70
2023/05/19 04:11:27;;;;;;;6.10;5.53;;;;;;;7.13;100.00;101946.94;6116352;23;20029;-70
2023/05/19 04:13:53;;;;;;;5.47;4.97;;;;;;;7.32;100.00;101897.03;6098657;23;20095;-70
2023/05/19 04:16:20;;;;;;;5.22;4.80;;;;;;;8.01;100.00;101958.31;6108668;23;20099;-70
2023/05/19 04:18:47;;;;;;;4.95;4.63;;;;;;;8.04;100.00;101920.78;6092143;23;20500;-71
2023/05/19 04:21:13;;;;;;;6.28;4.70;;;;;;;7.93;100.00;101847.84;6115786;23;20023;-71
2023/05/19 04:23:40;;;;;;;5.00;4.60;;;;;;;8.87;100.00;101945.91;6102115;23;20016;-71
2023/05/19 04:26:08;;;;;;;5.18;4.88;;;;;;;9.25;98.25;101954.53;6112509;23;20054;-71
2023/05/19 04:28:37;;;;;;;5.55;4.72;;;;;;;8.96;94.21;101788.59;6083751;23;20040;-71
2023/05/19 04:31:09;;;;;;;5.88;5.38;;;;;;;10.12;90.28;101905.75;6081225;23;20025;-71
2023/05/19 04:33:36;;;;;;;5.47;4.93;;;;;;;10.66;86.93;101896.19;6060996;23;20564;-71
2023/05/19 04:36:07;;;;;;;6.15;5.60;;;;;;;11.04;83.80;101858.09;6118619;23;20013;-71
2023/05/19 04:38:35;;;;;;;6.13;5.72;;;;;;;9.61;80.88;101522.00;6096864;23;20447;-71
2023/05/19 04:41:03;;;;;;;7.47;5.50;;;;;;;12.10;77.72;101829.59;6110089;23;20020;-71
2023/05/19 04:43:30;;;;;;;7.72;5.53;;;;;;;11.55;74.33;101669.59;6119039;23;20157;-72
2023/05/19 04:45:57;;;;;;;6.55;5.97;;;;;;;11.24;73.42;101691.84;6115264;23;20100;-71
2023/05/19 04:48:23;;;;;;;5.97;5.57;;;;;;;11.75;73.34;101743.28;6094248;23;20525;-71
2023/05/19 04:50:50;;;;;;;6.95;5.45;;;;;;;12.20;72.59;101761.66;6088911;23;20028;-71
2023/05/19 04:53:20;;;;;;;6.25;5.68;;;;;;;11.94;70.43;101687.31;6113313;23;20091;-72
2023/05/19 04:55:47;;;;;;;6.07;5.63;;;;;;;12.32;69.74;101704.09;6097495;23;20010;-72
2023/05/19 04:58:14;;;;;;;6.32;5.82;;;;;;;12.55;69.46;101704.88;6091560;23;20033;-71
2023/05/19 05:00:40;;;;;;;6.68;6.07;;;;;;;13.23;69.48;101739.53;6088619;23;20697;-71
2023/05/19 05:03:07;;;;;;;6.53;5.47;;;;;;;13.85;67.20;101719.03;6122828;23;20085;-71
2023/05/19 05:05:34;;;;;;;10.43;5.78;;;;;;;13.52;65.57;101585.22;6113891;23;20034;-71
2023/05/19 05:08:00;;;;;;;6.70;6.20;;;;;;;14.16;64.28;101606.59;6118461;23;20025;-71
2023/05/19 05:10:27;;;;;;;6.55;6.05;;;;;;;14.88;63.22;101649.44;6115060;23;20037;-71
2023/05/19 05:12:53;;;;;;;6.82;6.30;;;;;;;14.24;61.37;101482.94;6097037;23;20567;-72
2023/05/19 05:15:21;;;;;;;5.93;5.53;;;;;;;13.52;62.42;101449.88;6116023;23;20041;-71
2023/05/19 05:17:47;;;;;;;6.30;5.75;;;;;;;13.63;62.61;101512.59;6095699;23;20021;-71
2023/05/19 05:20:15;;;;;;;6.70;6.20;;;;;;;13.64;62.70;101530.16;6117808;23;20033;-71
2023/05/19 05:22:41;;;;;;;6.10;5.70;;;;;;;13.27;63.63;101497.72;6093027;23;20049;-72
2023/05/19 05:25:09;;;;;;;6.43;5.95;;;;;;;14.28;62.49;101582.19;6118143;23;20052;-72
2023/05/19 05:27:35;;;;;;;7.95;6.55;;;;;;;13.56;62.97;101494.47;6122599;23;20133;-71
2023/05/19 05:30:05;;;;;;;8.40;6.05;;;;;;;12.90;64.81;101568.06;6119170;23;20533;-71
2023/05/19 05:32:31;;;;;;;7.80;7.10;;;;;;;11.84;67.03;101515.00;6117114;23;20109;-72
2023/05/19 05:34:58;;;;;;;6.55;6.05;;;;;;;13.12;67.31;101663.59;6087417;23;20088;-72
2023/05/19 05:37:24;;;;;;;6.63;6.13;;;;;;;13.44;65.35;101648.03;6086118;23;20104;-71
2023/05/19 05:39:51;;;;;;;6.63;5.93;;;;;;;13.74;64.36;101621.91;6095941;23;20625;-72
2023/05/19 05:42:17;;;;;;;6.35;5.95;;;;;;;13.02;63.97;101530.56;6087794;23;20034;-71
2023/05/19 05:44:44;;;;;;;10.25;6.40;;;;;;;13.15;64.12;101497.41;6119841;23;20051;-72
2023/05/19 05:47:11;;;;;;;7.30;6.70;;;;;;;13.73;63.33;101541.09;6091178;23;20037;-71
2023/05/19 05:49:39;;;;;;;6.57;6.07;;;;;;;14.80;61.13;101530.09;6091537;23;20052;-72
2023/05/19 05:52:07;;;;;;;7.57;6.88;;;;;;;14.58;59.68;101406.28;6111146;23;20036;-71
2023/05/19 05:54:34;;;;;;;7.28;6.55;;;;;;;14.97;58.79;101442.75;6068062;23;20065;-71
2023/05/19 05:57:01;;;;;;;7.00;6.30;;;;;;;15.11;58.80;101405.78;6088546;23;20021;-70
2023/05/19 05:59:28;;;;;;;6.68;6.15;;;;;;;15.11;59.61;101476.28;6100944;23;20032;-71
2023/05/19 06:01:54;;;;;;;7.57;6.65;;;;;;;15.10;57.69;101385.56;6109329;23;20069;-71
2023/05/19 06:04:20;;;;;;;7.15;6.60;;;;;;;15.62;57.52;101441.53;6089141;23;20049;-72
2023/05/19 06:06:47;;;;;;;7.28;6.60;;;;;;;15.88;57.00;101401.09;6111288;23;20598;-71
2023/05/19 06:09:14;;;;;;;6.22;5.82;;;;;;;16.61;56.37;101450.25;6091281;23;20029;-72
2023/05/19 06:11:40;;;;;;;6.88;6.38;;;;;;;16.22;55.61;101314.19;6119741;23;20037;-72
2023/05/19 06:14:07;;;;;;;6.82;6.20;;;;;;;16.50;55.26;101352.09;6093494;23;20048;-72
2023/05/19 06:16:33;;;;;;;6.30;5.90;;;;;;;16.30;55.22;101319.81;6118385;23;20045;-71
2023/05/19 06:19:00;;;;;;;6.80;6.40;;;;;;;15.06;56.34;101236.00;6095809;23;20052;-72
2023/05/19 06:21:26;;;;;;;6.60;6.07;;;;;;;15.24;57.49;101312.50;6109975;23;20025;-72
2023/05/19 06:23:53;;;;;;;6.70;6.20;;;;;;;15.06;58.39;101367.34;6117495;23;20025;-71
2023/05/19 06:26:19;;;;;;;6.57;6.18;;;;;;;15.38;58.66;101435.94;6060909;23;20040;-71
2023/05/19 06:28:46;;;;;;;9.32;7.22;;;;;;;14.85;59.53;101440.81;6115189;23;20689;-71
2023/05/19 06:31:12;;;;;;;6.75;6.22;;;;;;;15.25;59.82;101520.44;6065022;23;20026;-71
2023/05/19 06:33:39;;;;;;;6.50;5.82;;;;;;;15.04;59.78;101472.34;6111596;23;20017;-71
2023/05/19 06:36:07;;;;;;;6.68;6.03;;;;;;;14.35;60.84;101424.25;6113555;23;20052;-71
2023/05/19 06:38:33;;;;;;;6.63;6.07;;;;;;;14.56;59.74;101461.84;6111195;23;20014;-71
2023/05/19 06:41:00;;;;;;;5.80;5.50;;;;;;;13.65;58.96;101284.78;6115731;23;20593;-71
2023/05/19 06:43:27;;;;;;;6.25;5.75;;;;;;;13.50;59.99;101320.75;6118444;23;20124;-72
2023/05/19 06:45:53;;;;;;;6.13;5.60;;;;;;;14.38;59.62;101457.56;6090940;23;20055;-72
2023/05/19 06:48:20;;;;;;;9.70;6.18;;;;;;;14.70;58.01;101434.66;6085483;23;20060;-70
2023/05/19 06:50:46;;;;;;;6.57;5.57;;;;;;;14.55;57.96;101404.63;6116518;23;20826;-71
2023/05/19 06:53:16;;;;;;;7.50;6.35;;;;;;;14.10;58.20;101372.00;6084773;23;20018;-72
2023/05/19 06:55:42;;;;;;;6.22;5.63;;;;;;;14.44;57.83;101418.47;6080422;23;20092;-71
2023/05/19 06:58:25;;;;;;;5.67;5.37;;;;;;;14.70;58.06;101466.34;6107020;23;20481;-72
2023/05/19 07:00:51;;;;;;;11.85;6.10;;;;;;;14.30;57.36;101379.63;6065423;23;20561;-72
2023/05/19 07:03:18;;;;;;;5.95;5.60;;;;;;;14.63;58.06;101443.84;6111615;23;20033;-72
2023/05/19 07:05:45;;;;;;;5.72;5.43;;;;;;;14.56;57.23;101375.53;6116473;23;20020;-72
2023/05/19 07:08:11;;;;;;;6.57;6.13;;;;;;;14.60;57.50;101418.47;6114030;23;20436;-72
2023/05/19 07:10:38;;;;;;;6.15;5.57;;;;;;;14.51;56.92;101409.25;6116318;23;20024;-72
2023/05/19 07:13:04;;;;;;;5.75;5.22;;;;;;;14.82;58.42;101492.06;6112307;23;20081;-71
2023/05/19 07:15:31;;;;;;;13.27;5.55;;;;;;;14.95;57.42;101453.44;6084897;23;20033;-71
2023/05/19 07:17:57;;;;;;;6.85;6.20;;;;;;;14.62;56.99;101399.91;6114417;23;20550;-71
2023/05/19 07:20:24;;;;;;;5.60;5.10;;;;;;;14.51;56.99;101408.38;6087460;23;20021;-71
2023/05/19 07:22:50;;;;;;;5.60;5.05;;;;;;;14.81;56.35;101397.84;6124571;23;20471;-70
2023/05/19 07:25:17;;;;;;;5.50;5.20;;;;;;;15.27;56.35;101453.28;6083594;23;20021;-71
2023/05/19 07:27:44;;;;;;;5.70;5.25;;;;;;;15.29;55.15;101382.63;6118638;23;20695;-71
2023/05/19 07:30:11;;;;;;;5.82;5.15;;;;;;;15.05;54.90;101361.19;6083660;23;20262;-71
2023/05/19 07:32:37;;;;;;;10.98;5.53;;;;;;;15.26;54.55;101379.34;6099415;23;20085;-71
2023/05/19 07:35:05;;;;;;;7.05;5.70;;;;;;;15.73;54.58;101436.44;6115111;23;20017;-71
2023/05/19 07:37:31;;;;;;;6.18;5.60;;;;;;;15.53;54.08;101368.84;6096942;23;20052;-71
2023/05/19 07:39:58;;;;;;;7.78;5.50;;;;;;;15.78;53.84;101392.03;6121326;23;20585;-72
2023/05/19 07:42:24;;;;;;;5.97;5.57;;;;;;;15.97;53.80;101434.06;6112999;23;20088;-71
2023/05/19 07:44:51;;;;;;;6.18;5.57;;;;;;;15.95;53.71;101415.63;6087264;23;20033;-71
2023/05/19 07:47:17;;;;;;;6.75;5.70;;;;;;;15.84;52.62;101357.22;6097405;23;20076;-71
2023/05/19 07:49:44;;;;;;;5.53;5.22;;;;;;;16.00;52.93;101401.25;6109960;23;20025;-71
2023/05/19 07:52:10;;;;;;;5.65;5.30;;;;;;;15.23;52.36;101242.03;6114605;23;20049;-71
2023/05/19 07:54:37;;;;;;;6.03;5.38;;;;;;;15.16;51.99;101221.28;6113323;23;20807;-72
2023/05/19 07:57:04;;;;;;;6.15;5.70;;;;;;;15.52;50.82;101198.72;6095339;23;20033;-72
2023/05/19 07:59:30;;;;;;;5.70;5.20;;;;;;;15.21;50.37;101181.31;6117326;23;20009;-71
2023/05/19 08:01:57;;;;;;;5.90;5.45;;;;;;;15.67;51.51;101293.91;6112929;23;20055;-72
2023/05/19 08:04:24;;;;;;;6.88;5.90;;;;;;;16.09;50.61;101307.97;6110649;23;20025;-71
2023/05/19 08:06:51;;;;;;;6.00;5.70;;;;;;;16.10;50.81;101318.47;6066527;23;20038;-71
2023/05/19 08:09:18;;;;;;;6.05;5.47;;;;;;;14.40;50.79;101039.31;6082434;23;20068;-71
2023/05/19 08:11:48;;;;;;;6.15;5.55;;;;;;;16.10;50.98;101313.19;6086609;23;20685;-72
2023/05/19 08:14:15;;;;;;;5.50;5.20;;;;;;;15.73;51.23;101301.47;6059181;23;20014;-71
2023/05/19 08:16:44;;;;;;;5.50;5.13;;;;;;;13.79;50.60;100962.19;6114238;23;20068;-71
2023/05/19 08:19:11;;;;;;;6.53;6.00;;;;;;;16.18;49.85;101287.97;6082715;23;20022;-71
2023/05/19 08:21:37;;;;;;;7.88;5.20;;;;;;;16.08;49.31;101266.59;6116411;23;20045;-72
2023/05/19 08:24:05;;;;;;;5.75;5.35;;;;;;;16.43;49.83;101333.09;6112215;23;20033;-71
2023/05/19 08:26:31;;;;;;;6.70;6.20;;;;;;;17.01;48.47;101323.00;6085494;23;20013;-71
2023/05/19 08:29:00;;;;;;;6.07;5.63;;;;;;;16.44;47.93;101225.34;6113312;23;20029;-72
2023/05/19 08:31:26;;;;;;;10.43;5.53;;;;;;;16.11;47.89;101186.94;6112786;23;20575;-74
2023/05/19 08:33:53;;;;;;;5.70;5.30;;;;;;;16.61;47.98;101278.00;6106678;23;20029;-71
2023/05/19 08:36:20;;;;;;;7.25;6.78;;;;;;;16.75;47.94;101308.84;6092533;23;20062;-70
2023/05/19 08:38:47;;;;;;;6.20;5.60;;;;;;;17.11;47.46;101328.53;6092885;23;20589;-71
2023/05/19 08:41:13;;;;;;;6.82;5.30;;;;;;;17.22;46.47;101287.97;6083977;23;20025;-72
2023/05/19 08:43:40;;;;;;;6.00;5.40;;;;;;;16.87;46.45;101211.75;6087974;23;20049;-71
2023/05/19 08:46:08;;;;;;;6.00;5.18;;;;;;;16.94;46.76;101271.38;6119906;23;20028;-72
2023/05/19 08:48:40;;;;;;;7.75;5.55;;;;;;;16.66;48.21;101291.78;6087664;23;20027;-72
2023/05/19 08:51:27;;;;;;;5.47;5.20;;;;;;;16.93;48.76;101376.56;6123565;23;20027;-72
2023/05/19 08:54:07;;;;;;;5.65;5.22;;;;;;;16.20;48.10;101228.69;6090094;23;21139;-71
2023/05/19 08:56:33;;;;;;;5.32;5.03;;;;;;;17.00;48.05;101345.19;6117051;23;20022;-71
2023/05/19 08:59:01;;;;;;;5.50;5.10;;;;;;;15.83;47.46;101146.44;6089763;23;20044;-72
2023/05/19 09:01:29;;;;;;;5.50;5.10;;;;;;;17.10;46.63;101298.50;6114194;23;20041;-74
2023/05/19 09:03:56;;;;;;;5.75;5.25;;;;;;;17.54;46.46;101346.72;6116238;23;20047;-74
2023/05/19 09:06:23;;;;;;;5.45;5.10;;;;;;;17.48;45.81;101276.38;6114099;23;20021;-74
2023/05/19 09:08:50;;;;;;;6.30;5.55;;;;;;;16.74;46.08;101179.97;6085189;23;20089;-75
2023/05/19 09:11:16;;;;;;;6.03;5.60;;;;;;;17.55;46.26;101328.03;6099265;23;20073;-74
2023/05/19 09:13:43;;;;;;;9.38;5.40;;;;;;;17.94;45.28;101328.81;6112555;23;20041;-74
2023/05/19 09:16:10;;;;;;;6.38;5.57;;;;;;;18.66;45.30;101444.88;6116385;23;20032;-74
2023/05/19 09:18:37;;;;;;;5.57;5.28;;;;;;;18.66;44.08;101357.13;6115404;23;20059;-74
2023/05/19 09:21:06;;;;;;;6.22;5.70;;;;;;;17.84;45.00;101229.53;6119840;23;20021;-74
2023/05/19 09:23:35;;;;;;;6.13;5.53;;;;;;;17.31;44.27;101173.25;6062326;23;20164;-74
2023/05/19 09:26:06;;;;;;;5.78;5.28;;;;;;;18.05;43.96;101288.16;6115646;23;20081;-72
2023/05/19 09:28:35;;;;;;;6.28;5.75;;;;;;;17.80;43.39;101212.09;6090889;23;20014;-73
2023/05/19 09:31:02;;;;;;;5.90;5.50;;;;;;;18.29;43.09;101264.22;6118746;23;20021;-73
2023/05/19 09:33:31;;;;;;;5.78;5.20;;;;;;;18.15;42.91;101256.44;6120139;23;20025;-72
2023/05/19 09:35:58;;;;;;;5.40;5.10;;;;;;;18.11;44.32;101322.22;6116397;23;20705;-75
2023/05/19 09:38:25;;;;;;;5.78;5.47;;;;;;;17.84;43.94;101265.84;6069503;23;20117;-72
2023/05/19 09:40:56;;;;;;;6.03;5.60;;;;;;;17.97;45.07;101361.41;6118825;23;20435;-73
2023/05/19 09:43:22;;;;;;;6.93;6.18;;;;;;;18.17;44.26;101323.59;6082236;23;20056;-74
2023/05/19 09:46:06;;;;;;;6.35;5.85;;;;;;;17.88;44.30;101304.47;6092022;23;20010;-73
2023/05/19 09:48:35;;;;;;;6.10;5.75;;;;;;;18.56;43.03;101320.69;6087666;23;20010;-74
2023/05/19 09:51:05;;;;;;;5.70;5.30;;;;;;;18.49;43.37;101328.31;6084093;23;20037;-73
2023/05/19 09:53:33;;;;;;;5.80;5.38;;;;;;;18.97;42.08;101314.06;6114214;23;20470;-72
2023/05/19 09:56:00;;;;;;;5.90;5.50;;;;;;;19.68;42.04;101410.47;6092734;23;20016;-74
2023/05/19 09:58:33;;;;;;;5.63;5.32;;;;;;;20.16;40.05;101366.72;6117236;23;20051;-73
2023/05/19 10:01:00;;;;;;;;;;;;;;;19.51;40.04;101271.56;6120613;23;20028;-73
2023/05/19 10:03:27;;;;;;;5.82;5.43;;;;;;;18.97;42.10;101292.78;6114623;23;20484;-72
2023/05/19 10:05:54;;;;;;;6.05;5.60;;;;;;;18.96;41.12;101265.31;6117548;23;20022;-72
2023/05/19 10:08:23;;;;;;;6.00;5.45;;;;;;;19.18;41.92;101367.41;6086855;23;20036;-75
2023/05/19 10:10:50;;;;;;;5.50;5.20;;;;;;;19.23;41.17;101341.28;6118065;23;20025;-72
2023/05/19 10:13:16;;;;;;;7.90;5.93;;;;;;;18.89;41.06;101272.94;6119062;23;20037;-73
2023/05/19 10:15:44;;;;;;;6.03;5.47;;;;;;;18.43;42.62;101299.53;6113286;23;20021;-73
2023/05/19 10:18:25;;;;;;;6.82;6.03;;;;;;;17.67;42.06;101211.31;6114964;23;20025;-73
2023/05/19 10:20:53;;;;;;;5.90;5.40;;;;;;;18.88;42.01;101384.75;6116453;23;20048;-73
2023/05/19 10:23:19;;;;;;;5.72;5.43;;;;;;;18.43;40.35;101227.78;6098845;23;20041;-73
2023/05/19 10:25:48;;;;;;;6.13;5.63;;;;;;;18.86;39.77;101267.88;6090855;23;20025;-73
2023/05/19 10:28:17;;;;;;;7.13;5.78;;;;;;;19.06;40.26;101322.16;6124132;23;20026;-73
2023/05/19 10:30:46;;;;;;;5.75;5.43;;;;;;;20.05;40.02;101443.06;6091908;23;20113;-73
2023/05/19 10:33:16;;;;;;;6.45;5.85;;;;;;;19.83;39.11;101313.41;6088378;23;20048;-73
2023/05/19 10:35:53;;;;;;;6.20;5.80;;;;;;;19.76;38.51;101312.19;6114748;23;20491;-73
2023/05/19 10:38:31;;;;;;;7.28;6.88;;;;;;;19.86;37.66;101309.63;6111974;23;20029;-73
2023/05/19 10:41:12;;;;;;;5.55;5.25;;;;;;;19.89;39.28;101376.84;6090559;23;20669;-74
2023/05/19 10:44:00;;;;;;;6.43;5.80;;;;;;;20.37;40.05;101450.25;6118017;23;20070;-73
2023/05/19 10:46:28;;;;;;;6.10;5.75;;;;;;;18.66;38.49;101109.88;6110558;23;20022;-73
2023/05/19 10:48:55;;;;;;;5.63;5.32;;;;;;;18.96;39.21;101238.72;6118567;23;20035;-73
2023/05/19 10:51:30;;;;;;;6.05;5.75;;;;;;;19.02;39.56;101288.75;6083096;23;20049;-73
2023/05/19 10:54:08;;;;;;;5.82;5.53;;;;;;;18.93;38.10;101191.09;6123704;23;20078;-73
2023/05/19 10:56:41;;;;;;;6.60;5.80;;;;;;;19.78;37.38;101293.44;6091721;23;20075;-73
2023/05/19 10:59:31;;;;;;;5.90;5.60;;;;;;;20.64;38.31;101428.47;6090668;23;20017;-72
2023/05/19 11:02:05;;;;;;;5.90;5.50;;;;;;;20.71;36.76;101371.00;6089677;23;20038;-72
2023/05/19 11:04:49;;;;;;;6.50;5.95;;;;;;;21.26;36.70;101431.31;6086136;23;20621;-72
2023/05/19 11:07:19;;;;;;;6.32;5.90;;;;;;;20.90;36.65;101366.75;6090366;23;20041;-72
2023/05/19 11:09:51;;;;;;;6.03;5.63;;;;;;;20.01;40.00;101391.00;6113794;23;20052;-72
2023/05/19 11:12:21;;;;;;;;;;;;;;;20.07;40.51;101416.28;6115346;23;20021;-72
2023/05/19 11:14:54;;;;;;;6.40;6.00;;;;;;;20.51;39.74;101454.47;6113756;23;19909;-73
2023/05/19 11:17:22;;;;;;;6.25;5.85;;;;;;;20.21;38.31;101346.72;6117377;23;20077;-72
2023/05/19 11:19:54;;;;;;;7.25;5.63;;;;;;;20.03;41.45;101437.00;6120276;23;20037;-75
2023/05/19 11:22:27;;;;;;;6.03;5.43;;;;;;;19.46;42.51;101438.78;6117710;23;20058;-72
2023/05/19 11:24:54;;;;;;;6.22;5.70;;;;;;;19.55;41.22;101389.31;6089469;23;20037;-72
2023/05/19 11:27:30;;;;;;;7.18;6.05;;;;;;;18.79;39.07;101191.31;6114739;23;20038;-75
2023/05/19 11:30:00;;;;;;;6.30;5.82;;;;;;;18.96;39.19;101233.41;6117399;23;20028;-73
2023/05/19 11:32:29;;;;;;;6.03;5.63;;;;;;;19.20;42.13;101426.66;6092686;23;20025;-73